Time;durP1;ratioP1;P1;durP2;ratioP2;P2;SDS_P1;SDS_P2;PMS_P1;PMS_P2;Temp;Humidity;BMP_temperature;BMP_pressure;BME280_temperature;BME280_humidity;BME280_pressure;Samples;Min_cycle;Max_cycle;Signal;HPM_P1;HPM_P2
2021/10/11 00:01:28;;;;;;;49.10;36.30;;;10.30;99.90;;;;;;4981635;28;20242;-66
2021/10/11 00:03:57;;;;;;;48.47;36.13;;;10.30;99.90;;;;;;4991300;28;20267;-66
2021/10/11 00:06:25;;;;;;;47.83;35.17;;;10.30;99.90;;;;;;4988810;28;20326;-67
2021/10/11 00:08:53;;;;;;;46.47;35.77;;;10.30;99.90;;;;;;4988759;28;20669;-66
2021/10/11 00:11:23;;;;;;;52.23;37.20;;;10.40;99.90;;;;;;4988639;28;20746;-67
2021/10/11 00:13:51;;;;;;;45.87;34.20;;;10.30;99.90;;;;;;4993696;28;20252;-67
2021/10/11 00:16:19;;;;;;;56.43;38.80;;;10.40;99.90;;;;;;4981975;28;20254;-67
2021/10/11 00:18:47;;;;;;;48.63;38.13;;;10.50;99.90;;;;;;4990285;28;20228;-66
2021/10/11 00:21:17;;;;;;;49.97;37.03;;;10.30;99.90;;;;;;4993241;28;20746;-67
2021/10/11 00:23:47;;;;;;;53.33;38.10;;;10.40;99.90;;;;;;4988567;28;20256;-67
2021/10/11 00:26:15;;;;;;;49.17;37.00;;;10.30;99.90;;;;;;4998905;28;20253;-67
2021/10/11 00:28:45;;;;;;;50.27;37.77;;;10.40;99.90;;;;;;5000213;28;20516;-67
2021/10/11 00:31:13;;;;;;;51.40;38.87;;;10.40;99.90;;;;;;4992835;28;20719;-66
2021/10/11 00:33:41;;;;;;;51.83;39.80;;;10.40;99.90;;;;;;4988682;28;20647;-66
2021/10/11 00:36:09;;;;;;;54.23;40.40;;;10.40;99.90;;;;;;4993332;28;20708;-66
2021/10/11 00:38:37;;;;;;;49.87;38.17;;;10.40;99.90;;;;;;5000894;28;20234;-66
2021/10/11 00:41:06;;;;;;;53.70;40.33;;;10.50;99.90;;;;;;5000513;28;20265;-66
2021/10/11 00:43:34;;;;;;;52.13;40.33;;;10.50;99.90;;;;;;4991949;28;20235;-67
2021/10/11 00:46:04;;;;;;;56.20;38.83;;;10.50;99.90;;;;;;4993780;28;20231;-66
2021/10/11 00:48:32;;;;;;;51.97;39.70;;;10.50;99.90;;;;;;4995478;28;20719;-66
2021/10/11 00:51:00;;;;;;;53.90;40.87;;;10.50;99.90;;;;;;4994677;28;20338;-66
2021/10/11 00:53:28;;;;;;;56.83;40.80;;;10.40;99.90;;;;;;4989938;28;20327;-66
2021/10/11 00:55:56;;;;;;;54.43;40.20;;;10.50;99.90;;;;;;4995691;28;20241;-66
2021/10/11 00:58:25;;;;;;;51.27;39.67;;;10.50;99.90;;;;;;4994176;28;20810;-66
2021/10/11 01:00:54;;;;;;;54.43;40.93;;;10.50;99.90;;;;;;4996988;28;20236;-66
2021/10/11 01:03:24;;;;;;;54.73;39.97;;;10.50;99.90;;;;;;4995042;28;20265;-66
2021/10/11 01:05:52;;;;;;;52.37;39.43;;;10.50;99.90;;;;;;4992094;28;20241;-65
2021/10/11 01:08:20;;;;;;;51.13;38.73;;;10.50;99.90;;;;;;5000980;28;20818;-66
2021/10/11 01:10:49;;;;;;;51.13;36.73;;;10.50;99.90;;;;;;4992196;28;20247;-66
2021/10/11 01:13:17;;;;;;;52.17;38.60;;;10.60;99.90;;;;;;4997678;28;20396;-66
2021/10/11 01:15:45;;;;;;;53.40;38.17;;;10.60;99.90;;;;;;4991761;28;20327;-67
2021/10/11 01:18:13;;;;;;;51.97;39.57;;;10.60;99.90;;;;;;5004335;28;20231;-66
2021/10/11 01:20:43;;;;;;;53.90;39.63;;;10.60;99.90;;;;;;4995871;28;20228;-67
2021/10/11 01:23:11;;;;;;;49.57;36.73;;;10.50;99.90;;;;;;4997022;28;20576;-66
2021/10/11 01:25:39;;;;;;;51.93;39.80;;;10.50;99.90;;;;;;4998224;28;20358;-66
2021/10/11 01:28:07;;;;;;;49.03;36.90;;;10.60;99.90;;;;;;4993357;28;20347;-66
2021/10/11 01:30:36;;;;;;;48.67;34.73;;;10.70;99.90;;;;;;4980529;28;20320;-65
2021/10/11 01:33:04;;;;;;;47.23;36.87;;;10.70;99.90;;;;;;4993013;28;20286;-66
2021/10/11 01:35:32;;;;;;;46.13;35.93;;;10.70;99.90;;;;;;5000187;28;20236;-66
2021/10/11 01:38:05;;;;;;;50.53;36.53;;;10.70;99.90;;;;;;4991886;28;20720;-66
2021/10/11 01:40:37;;;;;;;48.50;35.23;;;10.60;99.90;;;;;;4996127;28;20251;-67
2021/10/11 01:43:08;;;;;;;50.67;37.23;;;10.70;99.90;;;;;;5004432;28;20239;-65
2021/10/11 01:45:36;;;;;;;47.90;34.43;;;10.70;99.90;;;;;;4996751;28;20247;-66
2021/10/11 01:48:05;;;;;;;49.40;35.97;;;10.70;99.90;;;;;;4975786;28;20237;-67
2021/10/11 01:50:34;;;;;;;44.20;34.83;;;10.80;99.90;;;;;;4999296;28;20231;-66
2021/10/11 01:53:02;;;;;;;45.63;35.00;;;10.80;99.90;;;;;;4990950;28;20248;-66
2021/10/11 01:55:32;;;;;;;44.80;36.07;;;10.70;99.90;;;;;;4999182;28;20237;-66
2021/10/11 01:58:00;;;;;;;44.23;32.60;;;10.70;99.90;;;;;;4994454;28;20719;-66
2021/10/11 02:00:28;;;;;;;44.73;33.53;;;10.70;99.90;;;;;;4988104;28;20326;-66
2021/10/11 02:02:57;;;;;;;48.67;34.27;;;10.70;99.90;;;;;;4999600;28;20251;-65
2021/10/11 02:05:25;;;;;;;51.40;37.33;;;10.80;99.90;;;;;;4997564;28;20263;-65
2021/10/11 02:07:53;;;;;;;43.27;33.60;;;10.70;99.90;;;;;;4996967;28;20319;-67
2021/10/11 02:10:21;;;;;;;49.03;33.67;;;10.70;99.90;;;;;;4994112;28;20335;-66
2021/10/11 02:12:51;;;;;;;52.70;34.60;;;10.70;99.90;;;;;;4991116;28;20270;-66
2021/10/11 02:15:19;;;;;;;43.80;34.07;;;10.80;99.90;;;;;;4975200;28;20269;-66
2021/10/11 02:17:47;;;;;;;42.03;31.63;;;10.70;99.90;;;;;;4992913;28;20743;-66
2021/10/11 02:20:15;;;;;;;48.73;33.57;;;10.70;99.90;;;;;;4992587;28;20291;-66
2021/10/11 02:22:43;;;;;;;43.83;33.57;;;10.60;99.90;;;;;;4997590;28;20539;-67
2021/10/11 02:25:11;;;;;;;46.87;34.67;;;10.50;99.90;;;;;;4980431;28;20600;-66
2021/10/11 02:27:40;;;;;;;47.63;34.37;;;10.60;99.90;;;;;;4984554;28;20238;-67
2021/10/11 02:30:11;;;;;;;42.80;33.03;;;10.60;99.90;;;;;;4994184;28;20320;-66
2021/10/11 02:32:41;;;;;;;43.00;33.07;;;10.50;99.90;;;;;;4994080;28;20357;-66
2021/10/11 02:35:09;;;;;;;43.70;32.17;;;10.50;99.90;;;;;;4994408;28;20239;-66
2021/10/11 02:37:38;;;;;;;42.33;31.33;;;10.40;99.90;;;;;;4978112;28;20336;-66
2021/10/11 02:40:07;;;;;;;43.03;32.90;;;10.50;99.90;;;;;;4989265;28;20228;-65
2021/10/11 02:42:36;;;;;;;50.97;35.93;;;10.60;99.90;;;;;;4978303;28;20244;-66
2021/10/11 02:45:05;;;;;;;43.60;32.30;;;10.70;99.90;;;;;;4992171;28;20235;-66
2021/10/11 02:47:35;;;;;;;44.70;33.67;;;10.70;99.90;;;;;;4996751;28;20236;-66
2021/10/11 02:50:04;;;;;;;42.87;32.67;;;10.60;99.90;;;;;;4996192;28;20243;-66
2021/10/11 02:52:36;;;;;;;44.03;31.53;;;10.60;99.90;;;;;;4987090;28;20331;-67
2021/10/11 02:55:06;;;;;;;44.33;32.60;;;10.70;99.90;;;;;;4990252;28;20358;-68
2021/10/11 02:57:34;;;;;;;46.83;33.07;;;10.70;99.90;;;;;;4998647;28;20761;-66
2021/10/11 03:00:04;;;;;;;42.60;33.07;;;10.80;99.90;;;;;;4991383;28;20256;-66
2021/10/11 03:02:37;;;;;;;44.50;32.60;;;10.70;99.90;;;;;;4991534;28;20287;-66
2021/10/11 03:05:06;;;;;;;41.53;32.03;;;10.60;99.90;;;;;;4987595;28;20324;-66
2021/10/11 03:07:34;;;;;;;43.40;30.87;;;10.70;99.90;;;;;;5000297;28;20665;-67
2021/10/11 03:10:02;;;;;;;41.13;30.67;;;10.70;99.90;;;;;;4987134;28;20311;-66
2021/10/11 03:12:31;;;;;;;40.97;31.63;;;10.60;99.90;;;;;;4984699;28;20240;-67
2021/10/11 03:14:59;;;;;;;42.37;30.83;;;10.70;99.90;;;;;;4990137;28;20243;-67
2021/10/11 03:17:27;;;;;;;45.07;32.17;;;10.50;99.90;;;;;;4986873;28;20323;-66
2021/10/11 03:19:56;;;;;;;43.67;33.17;;;10.60;99.90;;;;;;4989190;28;20312;-66
2021/10/11 03:22:24;;;;;;;41.97;31.60;;;10.70;99.90;;;;;;4987574;28;20608;-67
2021/10/11 03:24:52;;;;;;;43.73;30.37;;;10.50;99.90;;;;;;4991077;28;20321;-67
2021/10/11 03:27:21;;;;;;;40.63;31.60;;;10.60;99.90;;;;;;4988201;28;20236;-66
2021/10/11 03:29:49;;;;;;;42.27;31.57;;;10.50;99.90;;;;;;4987750;28;20236;-66
2021/10/11 03:32:17;;;;;;;38.67;29.43;;;10.50;99.90;;;;;;4992361;28;20244;-66
2021/10/11 03:34:45;;;;;;;44.83;32.47;;;10.70;99.90;;;;;;4981382;28;20375;-66
2021/10/11 03:37:15;;;;;;;44.67;32.07;;;10.60;99.90;;;;;;4995062;28;20251;-67
2021/10/11 03:39:43;;;;;;;43.83;31.00;;;10.80;99.90;;;;;;4990756;28;20327;-66
2021/10/11 03:42:11;;;;;;;44.90;31.37;;;10.80;99.90;;;;;;4991698;28;20240;-66
2021/10/11 03:44:39;;;;;;;42.93;31.97;;;10.70;99.90;;;;;;4987667;28;20244;-66
2021/10/11 03:47:07;;;;;;;39.80;29.20;;;10.80;99.90;;;;;;4989275;28;20241;-67
2021/10/11 03:49:35;;;;;;;44.07;31.30;;;10.70;99.90;;;;;;4993623;28;20642;-66
2021/10/11 03:52:04;;;;;;;40.60;30.10;;;10.60;99.90;;;;;;4993156;28;20292;-67
2021/10/11 03:54:33;;;;;;;44.47;30.77;;;10.70;99.90;;;;;;4991631;28;20239;-66
2021/10/11 03:57:02;;;;;;;41.50;29.60;;;10.70;99.90;;;;;;4990148;28;20236;-67
2021/10/11 03:59:30;;;;;;;39.37;30.03;;;10.80;99.90;;;;;;4984351;28;20248;-66
2021/10/11 04:01:58;;;;;;;37.63;28.87;;;10.80;99.90;;;;;;4982254;28;20243;-66
2021/10/11 04:04:26;;;;;;;40.63;29.30;;;10.80;99.90;;;;;;4984765;28;20288;-66
2021/10/11 04:06:56;;;;;;;35.87;27.87;;;10.70;99.90;;;;;;4996047;28;20265;-66
2021/10/11 04:09:28;;;;;;;41.17;27.63;;;10.70;99.90;;;;;;4984202;28;20237;-66
2021/10/11 04:12:05;;;;;;;37.87;26.27;;;10.70;99.90;;;;;;4994405;28;20244;-66
2021/10/11 04:14:34;;;;;;;35.67;26.03;;;10.80;99.90;;;;;;4991852;28;20243;-68
2021/10/11 04:17:02;;;;;;;39.90;28.70;;;10.90;99.90;;;;;;4997328;28;20652;-67
2021/10/11 04:19:30;;;;;;;39.53;27.87;;;10.90;99.90;;;;;;4984682;28;20326;-66
2021/10/11 04:21:58;;;;;;;36.13;25.97;;;11.00;99.90;;;;;;4996748;28;20251;-66
2021/10/11 04:24:26;;;;;;;36.93;26.07;;;11.00;99.90;;;;;;4988074;28;20650;-67
2021/10/11 04:26:54;;;;;;;32.73;25.17;;;11.10;99.90;;;;;;4990784;28;20231;-66
2021/10/11 04:29:24;;;;;;;31.73;24.77;;;11.00;99.90;;;;;;4993630;28;20390;-67
2021/10/11 04:31:52;;;;;;;36.33;24.90;;;10.80;99.90;;;;;;4995502;28;20327;-66
2021/10/11 04:34:23;;;;;;;38.37;26.33;;;11.00;99.90;;;;;;4996714;28;20238;-66
2021/10/11 04:36:51;;;;;;;38.60;26.70;;;11.10;99.90;;;;;;4999356;28;20235;-66
2021/10/11 04:39:19;;;;;;;35.13;24.30;;;11.20;99.90;;;;;;4992283;28;20249;-66
2021/10/11 04:41:47;;;;;;;37.00;23.03;;;11.00;99.90;;;;;;4993337;28;20402;-66
2021/10/11 04:44:16;;;;;;;40.03;25.23;;;11.00;99.90;;;;;;4990712;28;20251;-66
2021/10/11 04:46:45;;;;;;;42.20;26.63;;;11.00;99.90;;;;;;4992112;28;20301;-66
2021/10/11 04:49:13;;;;;;;40.07;26.17;;;11.10;99.90;;;;;;4992268;28;20244;-67
2021/10/11 04:51:45;;;;;;;35.47;24.10;;;11.00;99.90;;;;;;4990549;28;20250;-67
2021/10/11 04:54:14;;;;;;;38.23;24.57;;;11.00;99.90;;;;;;4996685;28;20235;-67
2021/10/11 04:56:43;;;;;;;30.37;22.97;;;11.00;99.90;;;;;;4990958;28;20717;-66
2021/10/11 04:59:11;;;;;;;26.57;20.00;;;10.60;99.90;;;;;;4992049;28;20269;-67
2021/10/11 05:01:39;;;;;;;35.53;21.27;;;10.50;99.90;;;;;;4993544;28;20227;-66
2021/10/11 05:04:10;;;;;;;35.00;22.67;;;10.70;99.90;;;;;;4986474;28;20322;-66
2021/10/11 05:06:38;;;;;;;28.73;21.37;;;10.60;99.90;;;;;;4996519;28;20269;-66
2021/10/11 05:09:07;;;;;;;29.03;20.33;;;10.60;99.90;;;;;;4986741;28;20237;-66
2021/10/11 05:11:35;;;;;;;32.73;20.97;;;10.80;99.90;;;;;;4989539;28;20326;-66
2021/10/11 05:14:03;;;;;;;28.93;20.50;;;10.80;99.90;;;;;;4992841;28;20259;-67
2021/10/11 05:16:33;;;;;;;23.23;17.73;;;10.60;99.90;;;;;;4972557;28;20318;-66
2021/10/11 05:19:01;;;;;;;24.70;17.07;;;10.40;99.90;;;;;;4992902;28;20264;-66
2021/10/11 05:21:33;;;;;;;22.63;16.83;;;10.30;99.90;;;;;;5000220;28;20239;-66
2021/10/11 05:24:02;;;;;;;25.03;16.87;;;10.30;99.90;;;;;;4985187;28;20896;-67
2021/10/11 05:26:31;;;;;;;24.17;17.63;;;10.20;99.90;;;;;;4984146;28;20251;-68
2021/10/11 05:29:00;;;;;;;24.07;16.97;;;10.20;99.90;;;;;;4991802;28;20231;-66
2021/10/11 05:31:28;;;;;;;23.97;17.27;;;10.20;99.90;;;;;;4983239;28;20240;-67
2021/10/11 05:33:56;;;;;;;23.30;17.30;;;10.10;99.90;;;;;;4995959;28;20242;-66
2021/10/11 05:36:24;;;;;;;23.07;17.67;;;10.10;99.90;;;;;;4992699;28;20666;-66
2021/10/11 05:38:55;;;;;;;25.63;17.23;;;10.00;99.90;;;;;;4990674;28;20940;-65
2021/10/11 05:41:23;;;;;;;26.10;17.77;;;10.00;99.90;;;;;;4986751;28;20250;-65
2021/10/11 05:43:51;;;;;;;23.80;16.50;;;10.00;99.90;;;;;;4988613;28;20321;-65
2021/10/11 05:46:19;;;;;;;21.93;15.87;;;10.00;99.90;;;;;;4995108;28;20246;-65
2021/10/11 05:49:05;;;;;;;23.70;16.33;;;10.00;99.90;;;;;;4994737;28;20248;-66
2021/10/11 05:51:33;;;;;;;28.10;17.43;;;10.00;99.90;;;;;;4988870;28;20250;-66
2021/10/11 05:54:03;;;;;;;23.83;16.77;;;10.10;99.90;;;;;;4970176;28;20655;-65
2021/10/11 05:56:32;;;;;;;21.93;15.17;;;10.10;99.90;;;;;;4985973;28;20243;-65
2021/10/11 05:59:02;;;;;;;26.07;17.60;;;10.10;99.90;;;;;;4994472;28;20244;-65
2021/10/11 06:01:30;;;;;;;21.50;15.10;;;10.20;99.90;;;;;;4986939;28;20244;-65
2021/10/11 06:03:58;;;;;;;21.37;16.27;;;10.20;99.90;;;;;;4991598;28;20247;-66
2021/10/11 06:06:26;;;;;;;20.07;14.77;;;10.20;99.90;;;;;;4989680;28;20246;-65
2021/10/11 06:08:55;;;;;;;19.83;13.90;;;10.30;99.90;;;;;;4987936;28;20231;-66
2021/10/11 06:11:24;;;;;;;21.37;14.67;;;10.30;99.90;;;;;;4986866;28;20246;-66
2021/10/11 06:13:52;;;;;;;20.83;14.73;;;10.30;99.90;;;;;;4988608;28;20253;-65
2021/10/11 06:16:20;;;;;;;22.33;14.73;;;10.40;99.90;;;;;;4992597;28;20247;-65
2021/10/11 06:18:49;;;;;;;23.53;15.63;;;10.40;99.90;;;;;;4987343;28;20293;-65
2021/10/11 06:21:17;;;;;;;24.43;14.70;;;10.40;99.90;;;;;;4989373;28;20248;-66
2021/10/11 06:23:46;;;;;;;21.87;13.63;;;10.40;99.90;;;;;;4986886;28;20278;-66
2021/10/11 06:26:14;;;;;;;19.67;13.47;;;10.40;99.90;;;;;;5003354;28;20248;-65
2021/10/11 06:28:43;;;;;;;19.67;12.63;;;10.50;99.90;;;;;;4993265;28;20313;-66
2021/10/11 06:31:11;;;;;;;21.37;13.43;;;10.40;99.90;;;;;;4987993;28;20334;-65
2021/10/11 06:33:40;;;;;;;21.10;12.47;;;10.50;99.90;;;;;;4992295;28;20694;-65
2021/10/11 06:36:08;;;;;;;18.80;11.53;;;10.50;99.90;;;;;;4996002;28;20742;-66
2021/10/11 06:38:36;;;;;;;17.80;11.23;;;10.60;99.90;;;;;;4999970;28;20322;-66
2021/10/11 06:41:04;;;;;;;14.60;10.97;;;10.60;99.90;;;;;;4982531;28;20317;-65
2021/10/11 06:43:32;;;;;;;17.20;11.20;;;10.70;99.90;;;;;;4989993;28;20323;-65
2021/10/11 06:46:02;;;;;;;16.90;9.77;;;10.60;99.90;;;;;;4987115;28;20235;-65
2021/10/11 06:48:30;;;;;;;19.10;10.70;;;10.70;99.90;;;;;;4992545;28;20715;-66
2021/10/11 06:50:58;;;;;;;20.20;9.67;;;10.60;99.90;;;;;;4988937;28;20313;-65
2021/10/11 06:53:26;;;;;;;15.20;9.47;;;10.60;99.90;;;;;;4989083;28;20311;-66
2021/10/11 06:55:54;;;;;;;17.47;10.30;;;10.60;99.90;;;;;;4991284;28;20247;-66
2021/10/11 06:58:22;;;;;;;19.63;9.60;;;10.70;99.90;;;;;;4995227;28;20240;-65
2021/10/11 07:00:53;;;;;;;16.63;9.10;;;10.80;99.90;;;;;;4992713;28;20659;-65
2021/10/11 07:03:25;;;;;;;20.17;9.57;;;10.90;99.90;;;;;;4998349;28;20322;-65
2021/10/11 07:05:56;;;;;;;16.43;9.60;;;11.00;99.90;;;;;;4987852;28;20651;-66
2021/10/11 07:08:25;;;;;;;15.83;8.90;;;11.20;99.90;;;;;;4990578;28;20245;-66
2021/10/11 07:10:54;;;;;;;16.17;8.40;;;11.20;99.90;;;;;;4985644;28;20244;-65
2021/10/11 07:13:23;;;;;;;16.03;8.70;;;11.30;99.90;;;;;;4988543;28;20263;-66
2021/10/11 07:15:52;;;;;;;13.93;8.43;;;11.50;99.90;;;;;;4992896;28;20248;-66
2021/10/11 07:18:22;;;;;;;16.57;8.03;;;11.60;99.90;;;;;;4987773;28;20274;-65
2021/10/11 07:20:50;;;;;;;12.30;7.17;;;11.70;99.90;;;;;;4991099;28;20241;-65
2021/10/11 07:23:18;;;;;;;13.77;7.77;;;11.80;99.90;;;;;;4986311;28;20624;-65
2021/10/11 07:25:46;;;;;;;14.23;7.07;;;12.00;99.90;;;;;;4986090;28;20244;-66
2021/10/11 07:28:14;;;;;;;12.57;7.27;;;12.00;99.90;;;;;;4986106;28;20240;-66
2021/10/11 07:30:42;;;;;;;10.73;6.57;;;12.20;99.90;;;;;;4987848;28;20320;-65
2021/10/11 07:33:10;;;;;;;14.37;6.40;;;12.30;99.90;;;;;;4989285;28;20243;-66
2021/10/11 07:35:40;;;;;;;15.33;6.53;;;12.40;99.90;;;;;;4993140;28;20295;-65
2021/10/11 07:38:08;;;;;;;16.07;6.70;;;12.50;99.90;;;;;;4992422;28;20278;-66
2021/10/11 07:40:49;;;;;;;11.53;5.60;;;12.50;99.90;;;;;;4989735;28;20268;-66
2021/10/11 07:43:17;;;;;;;13.23;6.50;;;12.50;99.90;;;;;;4990744;28;20648;-67
2021/10/11 07:45:46;;;;;;;10.80;5.70;;;12.60;99.90;;;;;;4985273;28;20248;-67
2021/10/11 07:48:15;;;;;;;11.00;5.27;;;12.90;99.90;;;;;;4987616;28;20586;-65
2021/10/11 07:50:45;;;;;;;9.93;5.10;;;13.10;99.90;;;;;;4989760;28;20240;-67
2021/10/11 07:53:13;;;;;;;9.90;4.23;;;13.30;99.90;;;;;;4989999;28;20592;-66
2021/10/11 07:55:43;;;;;;;13.40;4.27;;;13.50;99.90;;;;;;4989869;28;20718;-66
2021/10/11 07:58:11;;;;;;;10.83;3.63;;;13.70;99.90;;;;;;4987785;28;20243;-65
2021/10/11 08:00:40;;;;;;;6.20;3.47;;;13.90;99.90;;;;;;4987269;28;20373;-65
2021/10/11 08:03:09;;;;;;;7.50;3.73;;;14.00;99.90;;;;;;4994764;28;20614;-65
2021/10/11 08:05:37;;;;;;;7.13;3.30;;;14.20;99.90;;;;;;4987220;28;20320;-65
2021/10/11 08:08:07;;;;;;;9.90;3.27;;;14.40;99.90;;;;;;4991296;28;20773;-65
2021/10/11 08:10:36;;;;;;;8.57;3.17;;;14.60;99.90;;;;;;4994404;28;20300;-65
2021/10/11 08:13:04;;;;;;;9.43;3.50;;;14.80;99.90;;;;;;4990624;28;20335;-65
2021/10/11 08:15:34;;;;;;;9.33;3.80;;;15.00;99.90;;;;;;4995626;28;20240;-65
2021/10/11 08:18:03;;;;;;;9.93;3.23;;;15.10;99.90;;;;;;4993403;28;20329;-66
2021/10/11 08:20:31;;;;;;;8.23;3.47;;;15.30;99.90;;;;;;4983777;28;20238;-65
2021/10/11 08:23:00;;;;;;;9.97;2.93;;;15.50;99.90;;;;;;4992630;28;20320;-65
2021/10/11 08:25:30;;;;;;;8.40;2.70;;;15.70;99.90;;;;;;4986595;28;20636;-66
2021/10/11 08:27:58;;;;;;;9.63;2.93;;;15.80;99.90;;;;;;4978674;28;20235;-65
2021/10/11 08:30:26;;;;;;;8.50;2.73;;;15.90;99.90;;;;;;4984960;28;20244;-66
2021/10/11 08:32:54;;;;;;;7.53;2.73;;;16.10;99.90;;;;;;4983269;28;20249;-66
2021/10/11 08:35:22;;;;;;;9.13;2.47;;;16.30;99.90;;;;;;4985180;28;20241;-65
2021/10/11 08:37:51;;;;;;;9.77;2.80;;;16.40;99.90;;;;;;4985499;28;20331;-66
2021/10/11 08:40:20;;;;;;;8.30;2.70;;;16.60;99.90;;;;;;4985431;28;20735;-66
2021/10/11 08:42:52;;;;;;;9.63;2.63;;;16.80;99.90;;;;;;4982201;28;20237;-67
2021/10/11 08:45:20;;;;;;;8.27;2.33;;;16.90;99.90;;;;;;4984925;28;20276;-65
2021/10/11 08:47:48;;;;;;;8.97;2.20;;;17.00;99.90;;;;;;4983276;28;20245;-66
2021/10/11 08:50:17;;;;;;;7.37;2.40;;;17.20;99.90;;;;;;4983428;28;20323;-66
2021/10/11 08:52:47;;;;;;;8.37;2.33;;;17.20;99.90;;;;;;4985655;28;20242;-66
2021/10/11 08:55:15;;;;;;;8.73;2.53;;;17.30;99.90;;;;;;4985113;28;20269;-66
2021/10/11 08:57:43;;;;;;;9.53;2.33;;;17.50;99.90;;;;;;4982635;28;20246;-66
2021/10/11 09:00:16;;;;;;;7.27;2.40;;;17.70;99.90;;;;;;4989230;28;20248;-65
2021/10/11 09:02:55;;;;;;;8.37;2.20;;;17.80;99.90;;;;;;4986120;28;20237;-67
2021/10/11 09:05:24;;;;;;;6.20;2.17;;;18.00;99.90;;;;;;4982874;28;20344;-67
2021/10/11 09:08:00;;;;;;;8.80;2.00;;;18.00;99.90;;;;;;4983057;28;20727;-66
2021/10/11 09:10:28;;;;;;;8.80;1.87;;;18.10;99.90;;;;;;4986871;28;20253;-66
2021/10/11 09:12:57;;;;;;;5.97;1.80;;;18.20;99.90;;;;;;4985981;28;20249;-66
2021/10/11 09:15:31;;;;;;;10.60;1.70;;;18.20;99.90;;;;;;4983276;28;20313;-67
2021/10/11 09:18:02;;;;;;;9.57;1.93;;;18.40;99.90;;;;;;4984888;28;20641;-66
2021/10/11 09:20:31;;;;;;;6.53;1.50;;;18.20;99.90;;;;;;4987914;28;20246;-67
2021/10/11 09:23:01;;;;;;;7.23;1.80;;;18.20;99.90;;;;;;4988038;28;20324;-66
2021/10/11 09:25:34;;;;;;;5.00;1.37;;;18.20;99.90;;;;;;4989566;28;20249;-66
2021/10/11 09:28:03;;;;;;;8.50;1.73;;;18.20;99.90;;;;;;4986400;28;20263;-66
2021/10/11 09:30:41;;;;;;;8.50;2.03;;;18.20;99.90;;;;;;4994210;28;20626;-66
2021/10/11 09:33:11;;;;;;;7.67;1.77;;;18.50;99.90;;;;;;4991819;28;20243;-66
2021/10/11 09:35:40;;;;;;;9.50;1.93;;;18.60;99.90;;;;;;5000035;28;20242;-66
2021/10/11 09:38:18;;;;;;;7.30;1.50;;;18.40;99.90;;;;;;4987402;28;20322;-66
2021/10/11 09:40:48;;;;;;;7.83;1.50;;;18.10;99.90;;;;;;4983410;28;20245;-67
2021/10/11 09:43:18;;;;;;;6.10;1.37;;;17.80;99.90;;;;;;4997300;28;20245;-66
2021/10/11 09:45:47;;;;;;;4.43;1.37;;;17.70;99.90;;;;;;4993866;28;20247;-66
2021/10/11 09:48:16;;;;;;;7.67;1.60;;;17.50;99.90;;;;;;4988158;28;20327;-66
2021/10/11 09:50:44;;;;;;;5.47;1.50;;;17.50;99.90;;;;;;4994026;28;20267;-66
2021/10/11 09:53:14;;;;;;;8.27;1.70;;;17.50;99.90;;;;;;4992062;28;20294;-66
2021/10/11 09:55:44;;;;;;;5.43;1.43;;;17.30;99.90;;;;;;4992456;28;20328;-65
2021/10/11 09:58:13;;;;;;;4.77;1.30;;;17.40;99.90;;;;;;5001062;28;20257;-66
2021/10/11 10:00:43;;;;;;;5.70;1.57;;;17.50;99.90;;;;;;4989385;28;20326;-66
2021/10/11 10:03:13;;;;;;;4.67;1.40;;;17.60;99.90;;;;;;4999893;28;20235;-66
2021/10/11 10:05:49;;;;;;;5.23;1.60;;;17.80;99.90;;;;;;4988758;28;20614;-66
2021/10/11 10:08:23;;;;;;;4.63;1.33;;;18.10;99.90;;;;;;4986020;28;20246;-66
2021/10/11 10:10:59;;;;;;;4.70;1.67;;;18.40;99.90;;;;;;4986279;28;20293;-67
2021/10/11 10:13:28;;;;;;;5.37;1.40;;;18.30;99.90;;;;;;5002683;28;20276;-66
2021/10/11 10:16:08;;;;;;;5.10;1.50;;;17.90;99.90;;;;;;4996635;28;20247;-67
2021/10/11 10:18:40;;;;;;;6.23;1.30;;;17.50;99.90;;;;;;4991156;28;20242;-67
2021/10/11 10:21:09;;;;;;;5.67;1.47;;;17.40;99.90;;;;;;4995879;28;20330;-66
2021/10/11 10:23:39;;;;;;;5.67;1.40;;;17.50;99.90;;;;;;4996032;28;20745;-67
2021/10/11 10:26:08;;;;;;;7.37;1.20;;;17.70;99.90;;;;;;4995380;28;20244;-66
2021/10/11 10:28:45;;;;;;;4.70;1.13;;;18.20;99.90;;;;;;4998968;28;20240;-66
2021/10/11 10:31:27;;;;;;;4.07;1.00;;;18.40;99.90;;;;;;4994267;28;20243;-66
2021/10/11 10:33:57;;;;;;;7.27;1.80;;;18.70;99.90;;;;;;4986099;28;20657;-67
2021/10/11 10:36:28;;;;;;;5.53;1.20;;;18.90;99.90;;;;;;4990241;28;20732;-66
2021/10/11 10:39:01;;;;;;;8.87;1.33;;;19.00;99.90;;;;;;4987575;28;20713;-67
2021/10/11 10:41:29;;;;;;;4.93;1.00;;;18.90;99.90;;;;;;4977270;28;20771;-67
2021/10/11 10:44:08;;;;;;;3.60;1.10;;;19.00;99.90;;;;;;4987862;28;20251;-66
2021/10/11 10:46:37;;;;;;;6.47;1.27;;;18.80;99.90;;;;;;4984204;28;20731;-66
2021/10/11 10:49:06;;;;;;;4.40;1.20;;;18.60;99.90;;;;;;4982677;28;20245;-66
2021/10/11 10:51:34;;;;;;;7.00;1.20;;;18.60;99.90;;;;;;4993303;28;20319;-67
2021/10/11 10:54:03;;;;;;;5.53;1.33;;;18.90;99.90;;;;;;4995922;28;20236;-67
2021/10/11 10:56:31;;;;;;;6.50;1.33;;;19.30;99.90;;;;;;4990182;28;20244;-66
2021/10/11 10:59:04;;;;;;;6.83;1.67;;;19.20;99.90;;;;;;4988407;28;20333;-66
2021/10/11 11:01:32;;;;;;;4.47;1.30;;;18.70;99.90;;;;;;4984418;28;20338;-66
2021/10/11 11:04:12;;;;;;;7.30;1.60;;;17.80;99.90;;;;;;4987443;28;20558;-66
2021/10/11 11:06:41;;;;;;;5.67;1.17;;;17.00;99.90;;;;;;4978897;28;20688;-67
2021/10/11 11:09:09;;;;;;;5.70;1.00;;;16.60;99.90;;;;;;4991657;28;20675;-67
2021/10/11 11:11:37;;;;;;;6.03;1.50;;;16.40;99.90;;;;;;4986660;28;20326;-66
2021/10/11 11:14:05;;;;;;;6.80;1.30;;;16.20;99.90;;;;;;4989894;28;20244;-66
2021/10/11 11:16:33;;;;;;;5.00;1.27;;;16.20;99.90;;;;;;4987980;28;20238;-66
2021/10/11 11:19:01;;;;;;;4.63;1.27;;;16.10;99.90;;;;;;4988236;28;20243;-67
2021/10/11 11:21:31;;;;;;;5.80;1.13;;;16.00;99.90;;;;;;4984597;28;20239;-66
2021/10/11 11:23:59;;;;;;;6.23;1.00;;;15.90;99.90;;;;;;4985787;28;20239;-67
2021/10/11 11:26:27;;;;;;;7.33;1.33;;;15.80;99.90;;;;;;4984159;28;20258;-66
2021/10/11 11:28:56;;;;;;;7.17;1.20;;;15.60;99.90;;;;;;4972556;28;20234;-67
2021/10/11 11:31:24;;;;;;;6.97;1.53;;;15.50;99.90;;;;;;4981616;28;20262;-66
2021/10/11 11:33:53;;;;;;;5.77;1.23;;;15.70;99.90;;;;;;4963049;28;20230;-66
2021/10/11 11:36:21;;;;;;;6.37;1.30;;;16.00;99.90;;;;;;4988564;28;20292;-66
2021/10/11 11:38:52;;;;;;;7.50;1.57;;;16.20;99.90;;;;;;4989848;28;20234;-67
2021/10/11 11:41:20;;;;;;;3.67;1.30;;;16.50;99.90;;;;;;4988027;28;20273;-67
2021/10/11 11:43:48;;;;;;;6.73;1.33;;;16.70;99.90;;;;;;4992237;28;20234;-66
2021/10/11 11:46:16;;;;;;;6.03;1.57;;;17.00;99.90;;;;;;4999654;28;20258;-66
2021/10/11 11:48:45;;;;;;;7.13;1.70;;;17.10;99.90;;;;;;4978954;28;20234;-66
2021/10/11 11:51:16;;;;;;;6.00;1.20;;;17.10;99.90;;;;;;4993462;28;20568;-66
2021/10/11 11:53:44;;;;;;;5.80;1.27;;;17.00;99.90;;;;;;4983131;28;20383;-66
2021/10/11 11:56:16;;;;;;;5.27;1.03;;;16.90;99.90;;;;;;4983425;28;20235;-66
2021/10/11 11:58:50;;;;;;;4.97;1.40;;;16.90;99.90;;;;;;4983327;28;20244;-66
2021/10/11 12:01:21;;;;;;;7.30;1.60;;;17.10;99.90;;;;;;4982930;28;20246;-65
2021/10/11 12:03:52;;;;;;;6.37;1.37;;;17.30;99.90;;;;;;4981675;28;20234;-66
2021/10/11 12:06:26;;;;;;;8.47;1.40;;;17.60;99.90;;;;;;4991230;28;20265;-66
2021/10/11 12:08:54;;;;;;;6.73;1.10;;;17.40;99.90;;;;;;4989899;28;20672;-66
2021/10/11 12:11:24;;;;;;;6.23;1.33;;;16.60;99.90;;;;;;4987115;28;20517;-66
2021/10/11 12:13:58;;;;;;;6.50;1.93;;;16.00;99.90;;;;;;4994277;28;20252;-66
2021/10/11 12:16:28;;;;;;;6.00;1.57;;;15.70;99.90;;;;;;4982798;28;20244;-67
2021/10/11 12:19:00;;;;;;;8.33;1.83;;;15.40;99.90;;;;;;4983827;28;20412;-66
2021/10/11 12:21:29;;;;;;;6.80;1.73;;;14.90;99.90;;;;;;4982893;28;20941;-66
2021/10/11 12:24:00;;;;;;;4.63;1.10;;;14.60;99.90;;;;;;4984463;28;22472;-67
2021/10/11 12:26:31;;;;;;;6.63;1.10;;;14.40;99.90;;;;;;4981425;28;20247;-67
2021/10/11 12:29:01;;;;;;;6.70;1.43;;;14.40;99.90;;;;;;4987399;28;20243;-66
2021/10/11 12:31:31;;;;;;;4.40;1.13;;;14.40;99.90;;;;;;4986148;28;20735;-65
2021/10/11 12:34:04;;;;;;;3.73;0.90;;;14.50;99.90;;;;;;4983812;28;20241;-66
2021/10/11 12:36:33;;;;;;;4.10;0.80;;;14.50;99.90;;;;;;4983670;28;20245;-67
2021/10/11 12:39:09;;;;;;;7.43;1.40;;;14.70;99.90;;;;;;4983679;28;20733;-66
2021/10/11 12:41:42;;;;;;;4.63;1.50;;;14.70;99.90;;;;;;4983233;28;20336;-66
2021/10/11 12:44:15;;;;;;;5.20;1.17;;;14.80;99.90;;;;;;4983769;28;20334;-66
2021/10/11 12:46:44;;;;;;;3.93;0.87;;;14.80;99.90;;;;;;4982309;28;20998;-66